Time;durP1;ratioP1;P1;durP2;ratioP2;P2;SDS_P1;SDS_P2;PMS_P1;PMS_P2;Temp;Humidity;BMP_temperature;BMP_pressure;BME280_temperature;BME280_humidity;BME280_pressure;Samples;Min_cycle;Max_cycle;Signal;HPM_P1;HPM_P2
2024/01/26 00:01:13;;;;;;;46.80;33.08;;;;;;;8.30;100.00;102175.75;5039664;28;20033;-76
2024/01/26 00:03:39;;;;;;;48.13;32.05;;;;;;;8.28;100.00;102166.06;5036771;28;20056;-76
2024/01/26 00:06:04;;;;;;;49.95;34.05;;;;;;;8.28;100.00;102166.94;5041505;28;20231;-75
2024/01/26 00:08:30;;;;;;;46.47;32.70;;;;;;;8.29;100.00;102176.66;5043277;28;20116;-75
2024/01/26 00:10:56;;;;;;;43.03;31.63;;;;;;;8.30;100.00;102166.91;5040248;28;20025;-75
2024/01/26 00:13:22;;;;;;;43.50;30.85;;;;;;;8.35;100.00;102165.91;5032924;28;20154;-75
2024/01/26 00:15:49;;;;;;;44.65;29.60;;;;;;;8.35;100.00;102165.91;5041228;28;20029;-75
2024/01/26 00:18:14;;;;;;;39.40;29.85;;;;;;;8.35;100.00;102165.03;5035083;28;20021;-75
2024/01/26 00:20:40;;;;;;;43.78;30.02;;;;;;;8.23;100.00;102139.63;5037692;28;20021;-75
2024/01/26 00:23:05;;;;;;;41.38;28.80;;;;;;;8.33;100.00;102162.41;5036607;28;20036;-75
2024/01/26 00:25:30;;;;;;;39.05;28.92;;;;;;;8.27;100.00;102151.91;5040628;28;20035;-74
2024/01/26 00:27:56;;;;;;;39.50;29.25;;;;;;;8.35;100.00;102163.25;5033661;28;20395;-74
2024/01/26 00:30:21;;;;;;;39.60;28.17;;;;;;;8.32;100.00;102163.34;5041664;28;20506;-74
2024/01/26 00:32:47;;;;;;;38.03;28.77;;;;;;;8.31;100.00;102163.34;5027695;28;20689;-74
2024/01/26 00:35:12;;;;;;;38.92;27.65;;;;;;;8.35;100.00;102170.34;5037203;28;20082;-76
2024/01/26 00:37:38;;;;;;;37.42;28.90;;;;;;;8.34;100.00;102164.16;5047339;28;20044;-74
2024/01/26 00:40:04;;;;;;;38.00;28.42;;;;;;;8.28;100.00;102160.75;5034527;28;20032;-74
2024/01/26 00:42:32;;;;;;;35.95;26.55;;;;;;;8.35;100.00;102160.59;5042092;28;20024;-74
2024/01/26 00:44:58;;;;;;;35.25;25.90;;;;;;;8.36;100.00;102157.06;5041917;28;20048;-73
2024/01/26 00:47:23;;;;;;;29.92;24.15;;;;;;;8.31;100.00;102145.66;5043455;28;20029;-74
2024/01/26 00:50:01;;;;;;;29.95;23.88;;;;;;;8.36;100.00;102154.41;5046601;28;20851;-75
2024/01/26 00:52:26;;;;;;;28.40;23.30;;;;;;;8.35;100.00;102155.28;5035351;22;20148;-74
2024/01/26 00:54:52;;;;;;;27.20;21.63;;;;;;;8.33;100.00;102157.13;5030370;28;20115;-73
2024/01/26 00:57:17;;;;;;;25.40;21.77;;;;;;;8.34;100.00;102148.25;5027390;28;20497;-75
2024/01/26 00:59:43;;;;;;;27.77;20.67;;;;;;;8.33;100.00;102142.97;5025163;28;20071;-74
2024/01/26 01:02:08;;;;;;;24.75;20.63;;;;;;;8.29;100.00;102139.50;5023235;28;20097;-75
2024/01/26 01:04:33;;;;;;;23.92;19.17;;;;;;;8.29;100.00;102142.16;5022577;28;20036;-74
2024/01/26 01:06:59;;;;;;;22.50;19.10;;;;;;;8.22;100.00;102138.75;5024971;28;20030;-74
2024/01/26 01:09:24;;;;;;;19.98;17.63;;;;;;;8.28;100.00;102153.69;5023212;28;20112;-74
2024/01/26 01:11:50;;;;;;;20.50;16.58;;;;;;;8.30;100.00;102143.91;5024438;28;20033;-75
2024/01/26 01:14:18;;;;;;;17.13;15.07;;;;;;;8.25;100.00;102137.81;5025510;28;20041;-73
2024/01/26 01:16:45;;;;;;;17.65;15.38;;;;;;;8.28;100.00;102148.38;5024157;28;20061;-74
2024/01/26 01:19:11;;;;;;;19.05;16.30;;;;;;;8.28;100.00;102142.19;5021842;28;20605;-74
2024/01/26 01:21:36;;;;;;;18.25;15.10;;;;;;;8.28;100.00;102139.53;5016803;28;20400;-74
2024/01/26 01:24:01;;;;;;;18.08;14.88;;;;;;;8.29;100.00;102144.81;5025710;28;20036;-73
2024/01/26 01:26:27;;;;;;;17.00;14.95;;;;;;;8.24;100.00;102134.31;5022650;28;20196;-72
2024/01/26 01:28:53;;;;;;;18.88;14.95;;;;;;;8.26;100.00;102123.66;5022661;28;20029;-75
2024/01/26 01:31:19;;;;;;;16.55;14.18;;;;;;;8.24;100.00;102105.13;5023119;28;20083;-74
2024/01/26 01:33:45;;;;;;;16.25;13.85;;;;;;;8.25;100.00;102116.59;5021047;28;20029;-74
2024/01/26 01:36:10;;;;;;;14.85;13.13;;;;;;;8.26;100.00;102112.16;5019219;28;20025;-73
2024/01/26 01:38:36;;;;;;;14.25;12.73;;;;;;;8.25;100.00;102113.97;5022200;28;20544;-73
2024/01/26 01:41:02;;;;;;;14.30;12.63;;;;;;;8.24;100.00;102106.91;5011531;28;20037;-75
2024/01/26 01:43:28;;;;;;;13.82;12.43;;;;;;;8.24;100.00;102107.78;5024870;28;20033;-74
2024/01/26 01:45:53;;;;;;;14.38;12.90;;;;;;;8.27;100.00;102109.47;5021521;28;20514;-74
2024/01/26 01:48:20;;;;;;;13.48;12.18;;;;;;;8.19;100.00;102099.06;5022004;28;20036;-74
2024/01/26 01:50:46;;;;;;;13.43;11.48;;;;;;;8.19;100.00;102099.06;5020493;28;20144;-74
2024/01/26 01:53:14;;;;;;;12.63;11.32;;;;;;;8.26;100.00;102104.22;5017171;28;20546;-73
2024/01/26 01:55:43;;;;;;;12.82;10.95;;;;;;;8.28;100.00;102094.44;5020948;28;20033;-74
2024/01/26 01:58:09;;;;;;;12.20;10.88;;;;;;;8.27;100.00;102095.34;5021927;28;20385;-74
2024/01/26 02:00:34;;;;;;;11.90;10.70;;;;;;;8.23;100.00;102086.56;5022543;28;20025;-74
2024/01/26 02:03:00;;;;;;;11.88;10.55;;;;;;;8.20;100.00;102086.66;5021844;28;20045;-74
2024/01/26 02:05:25;;;;;;;10.85;9.75;;;;;;;8.21;100.00;102085.75;5022561;28;20040;-74
2024/01/26 02:07:51;;;;;;;11.15;10.05;;;;;;;8.21;100.00;102086.63;5022708;28;20111;-74
2024/01/26 02:10:17;;;;;;;10.18;9.18;;;;;;;8.18;100.00;102083.16;5021247;28;20387;-74
2024/01/26 02:12:43;;;;;;;11.15;9.95;;;;;;;8.23;100.00;102089.22;5021966;28;20533;-74
2024/01/26 02:15:08;;;;;;;11.02;9.18;;;;;;;8.22;100.00;102091.00;5018338;28;20108;-74
2024/01/26 02:17:35;;;;;;;9.15;8.13;;;;;;;8.20;100.00;102076.94;5022051;28;20104;-74
2024/01/26 02:20:03;;;;;;;9.75;8.73;;;;;;;8.26;100.00;102085.66;5021637;28;20025;-74
2024/01/26 02:22:30;;;;;;;12.90;9.93;;;;;;;8.22;100.00;102066.28;5021030;28;20033;-74
2024/01/26 02:24:55;;;;;;;10.98;9.80;;;;;;;8.25;100.00;102071.53;5021917;28;20073;-75
2024/01/26 02:27:21;;;;;;;12.70;9.38;;;;;;;8.20;100.00;102066.31;5022548;28;20052;-75
2024/01/26 02:29:47;;;;;;;9.88;8.73;;;;;;;8.24;100.00;102062.69;5022133;28;20036;-75
2024/01/26 02:32:13;;;;;;;10.35;9.20;;;;;;;8.22;100.00;102058.31;5020635;28;20060;-73
2024/01/26 02:34:38;;;;;;;9.68;8.55;;;;;;;8.24;100.00;102054.72;5021083;28;20518;-74
2024/01/26 02:37:03;;;;;;;9.27;8.38;;;;;;;8.23;100.00;102049.44;5021421;28;20065;-75
2024/01/26 02:39:30;;;;;;;10.07;8.25;;;;;;;8.17;100.00;102033.69;5023119;28;20399;-74
2024/01/26 02:41:55;;;;;;;9.15;8.25;;;;;;;8.20;100.00;102037.16;5022328;28;20390;-74
2024/01/26 02:44:22;;;;;;;8.90;8.00;;;;;;;8.23;100.00;102037.09;5022340;28;20125;-74
2024/01/26 02:46:50;;;;;;;10.20;8.85;;;;;;;8.28;100.00;102036.06;5023217;28;20048;-74
2024/01/26 02:49:16;;;;;;;10.15;8.50;;;;;;;8.26;100.00;102033.47;5024899;28;20036;-74
2024/01/26 02:51:42;;;;;;;9.38;8.38;;;;;;;8.31;100.00;102033.38;5021540;28;20041;-74
2024/01/26 02:54:07;;;;;;;10.40;9.30;;;;;;;8.30;100.00;102029.84;5024002;28;20502;-74
2024/01/26 02:56:33;;;;;;;10.00;8.77;;;;;;;8.28;100.00;102021.06;5023870;28;20063;-74
2024/01/26 02:58:59;;;;;;;9.60;8.60;;;;;;;8.29;100.00;102028.09;5023587;28;20040;-74
2024/01/26 03:01:24;;;;;;;9.70;8.70;;;;;;;8.31;100.00;102030.72;5025140;28;20033;-74
2024/01/26 03:03:50;;;;;;;9.73;8.68;;;;;;;8.30;100.00;102018.38;5022638;28;20084;-74
2024/01/26 03:06:15;;;;;;;9.73;8.13;;;;;;;8.31;100.00;102012.16;5022910;28;20017;-74
2024/01/26 03:08:41;;;;;;;8.40;7.57;;;;;;;8.29;100.00;102000.72;5025095;28;20033;-74
2024/01/26 03:11:07;;;;;;;9.70;7.60;;;;;;;8.27;100.00;101987.47;5025019;28;20022;-74
2024/01/26 03:13:32;;;;;;;8.30;7.50;;;;;;;8.29;100.00;101990.09;5025087;28;20366;-74
2024/01/26 03:15:58;;;;;;;7.95;7.18;;;;;;;8.36;100.00;101997.88;5024447;28;20029;-75
2024/01/26 03:18:23;;;;;;;8.30;7.43;;;;;;;8.38;100.00;102005.84;5024751;28;20021;-74
2024/01/26 03:20:49;;;;;;;8.18;7.38;;;;;;;8.29;100.00;101980.34;5023543;28;20057;-74
2024/01/26 03:23:14;;;;;;;8.40;7.50;;;;;;;8.36;100.00;101979.31;5017501;28;20128;-74
2024/01/26 03:25:40;;;;;;;8.95;8.13;;;;;;;8.27;100.00;101955.63;5024402;28;20033;-75
2024/01/26 03:28:06;;;;;;;8.57;7.68;;;;;;;8.37;100.00;101967.81;5025081;28;20151;-75
2024/01/26 03:30:32;;;;;;;9.48;8.50;;;;;;;8.40;100.00;101972.16;5024764;28;20029;-75
2024/01/26 03:32:58;;;;;;;9.32;8.30;;;;;;;8.38;100.00;101969.56;5025844;28;20048;-75
2024/01/26 03:35:24;;;;;;;10.95;9.10;;;;;;;8.37;100.00;101962.50;5016985;28;20033;-74
2024/01/26 03:37:49;;;;;;;9.93;8.50;;;;;;;8.37;100.00;101953.69;5018123;28;20104;-75
2024/01/26 03:40:15;;;;;;;10.50;9.43;;;;;;;8.39;100.00;101955.38;5018603;28;20034;-75
2024/01/26 03:42:41;;;;;;;10.68;9.52;;;;;;;8.41;100.00;101969.50;5021771;28;20033;-75
2024/01/26 03:45:07;;;;;;;10.10;9.05;;;;;;;8.44;100.00;101955.25;5010452;28;20420;-75
2024/01/26 03:47:32;;;;;;;12.02;9.63;;;;;;;8.48;100.00;101972.84;5018980;28;20063;-74
2024/01/26 03:49:58;;;;;;;11.23;9.23;;;;;;;8.48;100.00;101965.78;5024332;28;20068;-74
2024/01/26 03:52:23;;;;;;;10.73;9.63;;;;;;;8.47;100.00;101961.38;5020966;28;20545;-74
2024/01/26 03:54:48;;;;;;;10.82;9.73;;;;;;;8.46;100.00;101949.03;5017274;28;20415;-75
2024/01/26 03:57:14;;;;;;;13.50;10.57;;;;;;;8.42;100.00;101944.69;5020034;28;20164;-75
2024/01/26 04:02:05;;;;;;;11.73;10.23;;;;;;;8.34;100.00;101941.31;5031768;23;20139;-74
2024/01/26 04:04:31;;;;;;;15.55;10.70;;;;;;;8.38;100.00;101939.50;5019579;28;20034;-75
2024/01/26 04:06:56;;;;;;;11.98;10.30;;;;;;;8.36;100.00;101930.66;5031749;28;20032;-74
2024/01/26 04:09:22;;;;;;;13.80;10.60;;;;;;;8.40;100.00;101946.53;5031552;22;20046;-75
2024/01/26 04:11:47;;;;;;;12.82;11.52;;;;;;;8.38;100.00;101923.59;5003964;28;20065;-75
2024/01/26 04:14:12;;;;;;;12.45;11.15;;;;;;;8.39;100.00;101923.53;5004588;28;20033;-75
2024/01/26 04:16:38;;;;;;;12.60;10.93;;;;;;;8.46;100.00;101943.72;5000494;28;20506;-75
2024/01/26 04:19:04;;;;;;;12.48;11.18;;;;;;;8.47;100.00;101928.66;5001529;28;20502;-75
2024/01/26 04:21:32;;;;;;;12.50;11.20;;;;;;;8.48;100.00;101919.78;5004288;28;20554;-74
2024/01/26 04:23:57;;;;;;;13.73;11.48;;;;;;;8.47;100.00;101905.66;5003261;28;20212;-74
2024/01/26 04:26:23;;;;;;;12.27;11.05;;;;;;;8.44;100.00;101899.53;5002808;28;20036;-74
2024/01/26 04:29:07;;;;;;;13.27;11.77;;;;;;;8.45;100.00;101902.19;5005969;28;20059;-74
2024/01/26 04:31:33;;;;;;;13.20;11.82;;;;;;;8.44;100.00;101895.13;5010482;23;20053;-74
2024/01/26 04:33:58;;;;;;;12.43;11.27;;;;;;;8.41;100.00;101887.25;5006458;28;20040;-74
2024/01/26 04:36:24;;;;;;;12.85;11.52;;;;;;;8.42;100.00;101875.72;5005805;28;21230;-74
2024/01/26 04:38:49;;;;;;;13.00;11.63;;;;;;;8.42;100.00;101878.38;5005439;28;20033;-73
2024/01/26 04:41:15;;;;;;;13.13;11.43;;;;;;;8.45;100.00;101866.81;5006724;28;20021;-73
2024/01/26 04:43:40;;;;;;;12.57;11.38;;;;;;;8.42;100.00;101859.81;5017765;28;20038;-74
2024/01/26 04:46:05;;;;;;;13.45;12.15;;;;;;;8.41;100.00;101857.19;5015461;28;20037;-74
2024/01/26 04:48:31;;;;;;;12.55;11.27;;;;;;;8.40;100.00;101872.25;5015994;28;20582;-74
2024/01/26 04:50:56;;;;;;;13.15;11.65;;;;;;;8.40;100.00;101861.63;5007507;28;20037;-74
2024/01/26 04:53:21;;;;;;;13.10;11.75;;;;;;;8.36;100.00;101859.03;5005891;28;20034;-74
2024/01/26 04:55:47;;;;;;;12.50;11.30;;;;;;;8.41;100.00;101858.06;5017725;28;20499;-74
2024/01/26 04:58:12;;;;;;;12.93;11.43;;;;;;;8.38;100.00;101844.00;5014985;28;20042;-74
2024/01/26 05:00:38;;;;;;;13.25;11.85;;;;;;;8.43;100.00;101866.84;5015497;28;20030;-74
2024/01/26 05:06:25;;;;;;;15.75;12.43;;;;;;;8.43;100.00;101861.53;5041045;23;20091;-75
2024/01/26 05:08:51;;;;;;;12.85;11.55;;;;;;;8.42;100.00;101864.25;5041001;28;20032;-74
2024/01/26 05:11:18;;;;;;;13.50;12.07;;;;;;;8.34;100.00;101843.19;5040424;28;20029;-75
2024/01/26 05:13:44;;;;;;;15.10;13.48;;;;;;;8.27;100.00;101833.63;5038072;28;20040;-75
2024/01/26 05:16:09;;;;;;;13.18;11.93;;;;;;;8.38;100.00;101852.84;5040838;28;20032;-75
2024/01/26 05:18:35;;;;;;;15.05;13.32;;;;;;;8.44;100.00;101844.72;5036983;28;20090;-75
2024/01/26 05:21:00;;;;;;;14.13;12.80;;;;;;;8.43;100.00;101842.97;5039912;28;20294;-75
2024/01/26 05:23:26;;;;;;;14.50;13.10;;;;;;;8.43;100.00;101840.31;5036058;22;20547;-75
2024/01/26 05:25:51;;;;;;;14.18;12.75;;;;;;;8.47;100.00;101833.16;5010085;28;20022;-75
2024/01/26 05:28:17;;;;;;;14.85;13.38;;;;;;;8.48;100.00;101821.63;4989305;28;20034;-76
2024/01/26 05:30:42;;;;;;;15.00;13.50;;;;;;;8.45;100.00;101827.91;4998211;28;20113;-75
2024/01/26 05:33:08;;;;;;;16.02;14.40;;;;;;;8.42;100.00;101833.28;4994981;28;20025;-77
2024/01/26 05:35:34;;;;;;;17.17;15.35;;;;;;;8.37;100.00;101826.34;4998865;28;20038;-78
2024/01/26 05:38:04;;;;;;;18.25;15.80;;;;;;;8.35;100.00;101831.66;4993823;28;20034;-78
2024/01/26 05:40:29;;;;;;;16.55;15.00;;;;;;;8.33;100.00;101822.88;4993144;28;20520;-79
2024/01/26 05:42:55;;;;;;;17.00;15.20;;;;;;;8.27;100.00;101807.09;4997190;28;20109;-78
2024/01/26 05:45:20;;;;;;;18.05;16.27;;;;;;;8.25;100.00;101793.03;4987050;28;20566;-78
2024/01/26 05:47:47;;;;;;;19.27;16.42;;;;;;;8.20;100.00;101789.63;4984768;28;20269;-80
2024/01/26 05:50:14;;;;;;;18.35;16.45;;;;;;;8.19;100.00;101793.16;4985295;28;20026;-79
2024/01/26 05:52:40;;;;;;;23.38;18.35;;;;;;;8.19;100.00;101794.06;4987784;28;20034;-79
2024/01/26 05:55:07;;;;;;;21.83;17.30;;;;;;;8.19;100.00;101790.50;4996100;28;20631;-79
2024/01/26 05:57:32;;;;;;;23.58;17.77;;;;;;;8.12;100.00;101783.66;5000512;28;20022;-77
2024/01/26 05:59:57;;;;;;;21.58;17.75;;;;;;;8.15;100.00;101779.16;4990928;28;20042;-78
2024/01/26 06:02:23;;;;;;;20.20;17.65;;;;;;;8.19;100.00;101794.06;4997046;28;20536;-78
2024/01/26 06:04:48;;;;;;;20.73;18.58;;;;;;;8.18;100.00;101792.28;4998704;28;20026;-78
2024/01/26 06:07:14;;;;;;;21.67;18.50;;;;;;;8.21;100.00;101791.34;4993519;28;20274;-79
2024/01/26 06:09:39;;;;;;;24.38;19.45;;;;;;;8.16;100.00;101769.41;4991300;28;20165;-78
2024/01/26 06:12:05;;;;;;;24.73;20.02;;;;;;;8.19;100.00;101779.91;5000452;28;20026;-78
2024/01/26 06:14:35;;;;;;;22.85;19.23;;;;;;;8.18;100.00;101789.66;4996121;28;20030;-79
2024/01/26 06:17:04;;;;;;;21.48;19.08;;;;;;;8.19;100.00;101796.72;4997220;28;20049;-77
2024/01/26 06:19:29;;;;;;;22.90;19.38;;;;;;;8.15;100.00;101760.56;4990468;28;20030;-78
2024/01/26 06:21:55;;;;;;;27.38;21.42;;;;;;;8.23;100.00;101779.81;4997437;28;20052;-78
2024/01/26 06:24:20;;;;;;;26.13;22.10;;;;;;;8.22;100.00;101775.41;5001389;28;20049;-78
2024/01/26 06:26:46;;;;;;;30.23;22.52;;;;;;;8.20;100.00;101766.63;5016213;28;20049;-76
2024/01/26 06:29:11;;;;;;;30.35;22.90;;;;;;;8.22;100.00;101761.28;5008181;28;20056;-77
2024/01/26 06:31:37;;;;;;;30.42;22.88;;;;;;;8.10;100.00;101735.06;5008750;28;20041;-76
2024/01/26 06:34:02;;;;;;;28.90;22.77;;;;;;;8.18;100.00;101749.88;5001324;28;20025;-77
2024/01/26 06:36:27;;;;;;;29.58;23.60;;;;;;;8.27;100.00;101755.84;4997692;28;20120;-79
2024/01/26 06:38:53;;;;;;;29.35;22.83;;;;;;;8.28;100.00;101761.13;4998581;28;20073;-78
2024/01/26 06:41:18;;;;;;;28.25;22.55;;;;;;;8.27;100.00;101767.31;5000465;28;20027;-78
2024/01/26 06:43:50;;;;;;;29.95;24.00;;;;;;;8.18;100.00;101755.16;4992328;28;20038;-77
2024/01/26 06:46:18;;;;;;;31.45;23.25;;;;;;;8.28;100.00;101774.38;4993091;28;20053;-75
2024/01/26 06:48:43;;;;;;;31.20;23.35;;;;;;;8.32;100.00;101775.16;4996881;28;20038;-74
2024/01/26 06:51:09;;;;;;;31.27;24.33;;;;;;;8.35;100.00;101783.91;4998640;28;20053;-77
2024/01/26 06:53:35;;;;;;;32.80;24.95;;;;;;;8.34;100.00;101776.88;4997386;28;20042;-76
2024/01/26 06:56:01;;;;;;;32.88;24.23;;;;;;;8.30;100.00;101772.53;5006197;28;20025;-77
2024/01/26 06:58:26;;;;;;;35.47;24.95;;;;;;;8.30;100.00;101761.06;4992976;28;20098;-77
2024/01/26 07:00:52;;;;;;;31.00;24.42;;;;;;;8.37;100.00;101760.91;4993182;28;20695;-78
2024/01/26 07:03:18;;;;;;;33.53;24.95;;;;;;;8.40;100.00;101754.63;5001597;28;20509;-78
2024/01/26 07:05:43;;;;;;;31.75;25.10;;;;;;;8.40;100.00;101754.63;5001826;28;20021;-77
2024/01/26 07:08:09;;;;;;;33.00;24.70;;;;;;;8.30;100.00;101737.19;5002210;28;20064;-77
2024/01/26 07:10:34;;;;;;;31.05;24.25;;;;;;;8.45;100.00;101750.97;5008036;28;20083;-77
2024/01/26 07:13:00;;;;;;;28.42;22.83;;;;;;;8.48;100.00;101758.84;5006473;28;20021;-76
2024/01/26 07:15:25;;;;;;;28.02;22.25;;;;;;;8.45;100.00;101745.66;5001198;28;20031;-76
2024/01/26 07:17:50;;;;;;;30.67;22.98;;;;;;;8.40;100.00;101734.31;4997368;28;20293;-77
2024/01/26 07:20:16;;;;;;;33.58;23.55;;;;;;;8.43;100.00;101717.41;4998329;28;20072;-76
2024/01/26 07:22:42;;;;;;;26.05;20.42;;;;;;;8.43;100.00;101714.75;5000235;28;20018;-78
2024/01/26 07:25:11;;;;;;;30.73;21.73;;;;;;;8.47;100.00;101734.97;5006272;28;20038;-77
2024/01/26 07:27:38;;;;;;;30.67;22.15;;;;;;;8.54;100.00;101741.00;5007996;28;20025;-77
2024/01/26 07:30:05;;;;;;;26.38;20.90;;;;;;;8.57;100.00;101738.22;5017007;28;20112;-80
2024/01/26 07:32:31;;;;;;;25.98;19.83;;;;;;;8.62;100.00;101739.88;5012847;28;20022;-77
2024/01/26 07:34:57;;;;;;;26.40;20.02;;;;;;;8.58;100.00;101735.56;5009137;28;20483;-77
2024/01/26 07:37:22;;;;;;;24.80;18.85;;;;;;;8.65;100.00;101730.94;5005596;28;20039;-77
2024/01/26 07:39:47;;;;;;;26.42;20.10;;;;;;;8.59;100.00;101701.94;5005211;28;20041;-76
2024/01/26 07:42:13;;;;;;;24.27;18.95;;;;;;;8.63;100.00;101711.53;5004227;28;20041;-76
2024/01/26 07:44:38;;;;;;;26.27;19.60;;;;;;;8.70;100.00;101710.47;5017811;28;20075;-76
2024/01/26 07:47:04;;;;;;;25.83;19.30;;;;;;;8.67;100.00;101713.19;5007709;28;20066;-77
2024/01/26 07:49:29;;;;;;;27.02;20.00;;;;;;;8.64;100.00;101700.00;4999046;28;20029;-77
2024/01/26 07:51:54;;;;;;;24.48;18.85;;;;;;;8.75;100.00;101719.16;5005666;28;20029;-76
2024/01/26 07:54:20;;;;;;;25.38;18.90;;;;;;;8.75;100.00;101737.72;4984073;28;20488;-76
2024/01/26 07:56:45;;;;;;;22.42;18.73;;;;;;;8.74;100.00;101743.97;5010993;28;20025;-76
2024/01/26 07:59:10;;;;;;;26.20;19.88;;;;;;;8.71;100.00;101739.59;5010727;28;20033;-75
2024/01/26 08:01:36;;;;;;;25.13;19.55;;;;;;;8.81;100.00;101744.63;4997047;28;20030;-74
2024/01/26 08:04:02;;;;;;;27.20;20.15;;;;;;;8.76;100.00;101763.34;5008737;28;20159;-75
2024/01/26 08:06:27;;;;;;;26.95;20.77;;;;;;;8.87;100.00;101773.69;5010077;28;20097;-76
2024/01/26 08:08:53;;;;;;;25.38;20.27;;;;;;;8.90;100.00;101768.25;5011512;28;20506;-74
2024/01/26 08:11:21;;;;;;;25.00;19.40;;;;;;;8.92;100.00;101774.41;4999399;28;20506;-75
2024/01/26 08:13:47;;;;;;;29.00;21.42;;;;;;;8.88;100.00;101773.63;5001949;28;20096;-75
2024/01/26 08:16:15;;;;;;;25.50;20.08;;;;;;;8.95;100.00;101783.16;4997757;28;20056;-75
2024/01/26 08:18:41;;;;;;;27.02;20.67;;;;;;;9.01;100.00;101791.84;5000082;28;20033;-74
2024/01/26 08:21:07;;;;;;;28.33;20.98;;;;;;;9.00;100.00;101782.16;4992928;28;20022;-75
2024/01/26 08:23:32;;;;;;;27.20;20.80;;;;;;;8.93;100.00;101771.69;5003421;28;20034;-74
2024/01/26 08:25:58;;;;;;;25.13;20.77;;;;;;;9.05;100.00;101778.44;4995187;28;20105;-74
2024/01/26 08:28:23;;;;;;;24.33;19.67;;;;;;;9.05;100.00;101780.22;4996598;28;20060;-74
2024/01/26 08:30:48;;;;;;;28.67;20.50;;;;;;;9.01;100.00;101778.56;4998344;28;20037;-75
2024/01/26 08:33:13;;;;;;;26.35;19.52;;;;;;;9.08;100.00;101782.81;5002411;28;20057;-75
2024/01/26 08:35:39;;;;;;;27.38;20.50;;;;;;;9.07;100.00;101784.59;4994851;28;20669;-75
2024/01/26 08:38:04;;;;;;;24.52;18.73;;;;;;;9.08;100.00;101777.50;5006916;28;20679;-74
2024/01/26 08:40:30;;;;;;;26.48;19.55;;;;;;;9.11;100.00;101782.69;5004817;28;20036;-73
2024/01/26 08:42:55;;;;;;;26.50;19.08;;;;;;;9.11;100.00;101785.34;5000744;28;20044;-74
2024/01/26 08:45:21;;;;;;;22.88;18.45;;;;;;;9.10;100.00;101763.22;4998857;28;20135;-74
2024/01/26 08:47:46;;;;;;;26.50;20.30;;;;;;;9.07;100.00;101781.03;5002300;28;20042;-74
2024/01/26 08:50:12;;;;;;;27.75;18.88;;;;;;;9.14;100.00;101790.56;4995910;28;20036;-74
2024/01/26 08:52:38;;;;;;;23.63;17.98;;;;;;;9.09;100.00;101785.41;4986476;28;20034;-74
2024/01/26 08:55:04;;;;;;;26.30;18.90;;;;;;;9.15;100.00;101789.66;4994992;28;20629;-74
2024/01/26 08:57:30;;;;;;;21.70;17.55;;;;;;;9.22;100.00;101793.88;4992813;28;20065;-75
2024/01/26 08:59:55;;;;;;;18.00;15.60;;;;;;;9.22;100.00;101788.56;5000973;28;20068;-74
2024/01/26 09:02:20;;;;;;;19.35;15.77;;;;;;;9.27;100.00;101785.75;5002223;28;20117;-74
2024/01/26 09:04:46;;;;;;;21.83;15.30;;;;;;;9.25;100.00;101788.47;4996167;28;20058;-73
2024/01/26 09:07:12;;;;;;;19.23;15.05;;;;;;;9.28;100.00;101784.84;4993422;28;20560;-74
2024/01/26 09:09:38;;;;;;;18.23;15.77;;;;;;;9.30;100.00;101797.16;4997943;28;20034;-73
2024/01/26 09:12:05;;;;;;;19.38;15.20;;;;;;;9.29;100.00;101795.44;4996624;28;20470;-73
2024/01/26 09:14:30;;;;;;;19.63;15.60;;;;;;;9.28;100.00;101791.03;5017291;28;20014;-74
2024/01/26 09:16:56;;;;;;;17.48;15.63;;;;;;;9.24;100.00;101784.09;4994916;28;20380;-74
2024/01/26 09:19:21;;;;;;;18.88;14.65;;;;;;;9.30;100.00;101794.50;5011660;28;20038;-75
2024/01/26 09:21:47;;;;;;;17.42;14.55;;;;;;;9.23;100.00;101803.56;4992283;28;20037;-73
2024/01/26 09:24:12;;;;;;;17.52;14.73;;;;;;;9.29;100.00;101821.13;4991405;28;20836;-72
2024/01/26 09:26:39;;;;;;;19.73;15.85;;;;;;;9.26;100.00;101848.66;4988710;28;20038;-72
2024/01/26 09:29:05;;;;;;;13.63;12.10;;;;;;;9.15;100.00;101840.09;4992080;28;20109;-71
2024/01/26 09:31:31;;;;;;;13.57;10.48;;;;;;;9.14;100.00;101854.31;4996163;28;20018;-72
2024/01/26 09:33:56;;;;;;;13.68;10.38;;;;;;;9.00;100.00;101843.22;5000109;28;20044;-73
2024/01/26 09:36:21;;;;;;;12.57;9.80;;;;;;;9.00;100.00;101859.16;4993958;28;20545;-71
2024/01/26 09:38:47;;;;;;;12.93;9.23;;;;;;;9.01;100.00;101867.06;4989029;28;20034;-72
2024/01/26 09:41:13;;;;;;;12.75;8.50;;;;;;;8.97;100.00;101876.91;4996012;28;20129;-72
2024/01/26 09:43:38;;;;;;;14.13;7.90;;;;;;;8.94;100.00;101873.47;4993971;28;20022;-72
2024/01/26 09:46:06;;;;;;;16.10;9.25;;;;;;;8.92;100.00;101888.56;4997769;28;20037;-72
2024/01/26 09:48:36;;;;;;;11.60;7.32;;;;;;;8.86;100.00;101889.63;4999305;28;20030;-71
2024/01/26 09:51:01;;;;;;;12.70;6.65;;;;;;;8.87;100.00;101906.41;4997151;28;20040;-72
2024/01/26 09:53:29;;;;;;;11.50;6.40;;;;;;;8.82;100.00;101903.88;4993742;28;20034;-72
2024/01/26 09:55:55;;;;;;;13.63;6.22;;;;;;;8.71;100.00;101920.09;4991423;28;20109;-71
2024/01/26 09:58:21;;;;;;;16.15;6.50;;;;;;;8.75;100.00;101941.25;5000822;28;20105;-72
2024/01/26 10:00:47;;;;;;;15.32;6.22;;;;;;;8.63;100.00;101950.38;4997608;28;20054;-72
2024/01/26 10:03:13;;;;;;;13.82;5.47;;;;;;;8.59;100.00;101983.22;4997830;28;20041;-72
2024/01/26 10:05:39;;;;;;;9.55;3.47;;;;;;;8.46;100.00;102004.75;4999021;28;20132;-72
2024/01/26 10:08:09;;;;;;;9.77;3.92;;;;;;;8.24;100.00;102016.72;5001655;28;20412;-71
2024/01/26 10:10:34;;;;;;;11.38;3.10;;;;;;;8.13;100.00;102021.38;4995965;28;20531;-72
2024/01/26 10:13:00;;;;;;;8.32;3.63;;;;;;;8.06;100.00;102022.41;4991010;28;20023;-72
2024/01/26 10:15:26;;;;;;;10.38;2.88;;;;;;;8.08;100.00;102036.53;4999274;28;20026;-72
2024/01/26 10:17:54;;;;;;;8.18;2.95;;;;;;;8.15;100.00;102025.78;4994420;28;20029;-72
2024/01/26 10:20:20;;;;;;;13.18;3.47;;;;;;;8.15;100.00;102038.13;4998646;28;20057;-73
2024/01/26 10:22:46;;;;;;;15.07;3.40;;;;;;;8.10;100.00;102047.97;4991515;28;20041;-74
2024/01/26 10:25:13;;;;;;;11.18;3.22;;;;;;;7.97;100.00;102050.88;5004060;28;20103;-73
2024/01/26 10:27:40;;;;;;;13.07;3.40;;;;;;;7.90;100.00;102051.94;5000051;28;20041;-73
2024/01/26 10:30:06;;;;;;;9.65;3.08;;;;;;;7.86;100.00;102062.59;5003785;28;20154;-73
2024/01/26 10:32:32;;;;;;;11.88;3.20;;;;;;;7.84;100.00;102073.25;5000353;28;20034;-74
2024/01/26 10:35:00;;;;;;;9.05;3.28;;;;;;;7.81;100.00;102061.81;4996219;28;20070;-74
2024/01/26 10:37:27;;;;;;;13.18;3.47;;;;;;;7.82;100.00;102067.13;4998326;28;20030;-73
2024/01/26 10:39:57;;;;;;;14.18;3.83;;;;;;;7.81;100.00;102077.72;5007331;28;20048;-76
2024/01/26 10:42:23;;;;;;;12.98;3.83;;;;;;;7.99;100.00;102094.16;4995213;28;20127;-74
2024/01/26 10:44:51;;;;;;;16.13;3.83;;;;;;;8.01;100.00;102079.97;4994109;28;20033;-75
2024/01/26 10:47:21;;;;;;;17.70;3.70;;;;;;;7.87;100.00;102077.63;5000078;28;20096;-74
2024/01/26 10:49:50;;;;;;;14.57;3.78;;;;;;;7.67;100.00;102085.94;5000064;28;20067;-74
2024/01/26 10:52:18;;;;;;;17.10;3.78;;;;;;;7.65;100.00;102106.28;4996752;28;20499;-74
2024/01/26 10:54:48;;;;;;;13.77;3.78;;;;;;;7.66;100.00;102116.88;4998246;28;20300;-75
2024/01/26 10:57:22;;;;;;;12.07;3.47;;;;;;;7.72;100.00;102110.59;5003932;28;20040;-74
2024/01/26 10:59:50;;;;;;;;;;;;;;;7.79;100.00;102132.56;5003802;28;20483;-74
2024/01/26 11:02:27;;;;;;;11.40;3.13;;;;;;;8.14;100.00;102132.72;5000339;28;19995;-74
2024/01/26 11:04:52;;;;;;;13.23;2.97;;;;;;;8.42;100.00;102142.81;5008576;28;20030;-74
2024/01/26 11:07:18;;;;;;;11.13;3.28;;;;;;;8.51;100.00;102160.31;5015352;28;20446;-73
2024/01/26 11:09:46;;;;;;;12.40;2.70;;;;;;;8.41;100.00;102155.22;5003359;28;20045;-74
2024/01/26 11:12:29;;;;;;;9.80;2.60;;;;;;;8.53;100.00;102175.31;5001965;28;20355;-74